sensor_id;sensor_type;location;lat;lon;timestamp;pressure;altitude;pressure_sealevel;temperature
68012;BMP180;54794;48.348;7.878;2024-01-30T00:02:17;100443.00;;;4.90
68012;BMP180;54794;48.348;7.878;2024-01-30T00:04:44;100447.00;;;4.80
68012;BMP180;54794;48.348;7.878;2024-01-30T00:07:11;100449.00;;;4.40
68012;BMP180;54794;48.348;7.878;2024-01-30T00:09:38;100465.00;;;4.30
68012;BMP180;54794;48.348;7.878;2024-01-30T00:12:06;100468.00;;;4.40
68012;BMP180;54794;48.348;7.878;2024-01-30T00:14:33;100469.00;;;4.40
68012;BMP180;54794;48.348;7.878;2024-01-30T00:17:00;100470.00;;;4.40
68012;BMP180;54794;48.348;7.878;2024-01-30T00:19:27;100463.00;;;4.70
68012;BMP180;54794;48.348;7.878;2024-01-30T00:21:54;100467.00;;;4.80
68012;BMP180;54794;48.348;7.878;2024-01-30T00:24:21;100467.00;;;4.90
68012;BMP180;54794;48.348;7.878;2024-01-30T00:26:48;100467.00;;;4.80
68012;BMP180;54794;48.348;7.878;2024-01-30T00:29:15;100472.00;;;4.80
68012;BMP180;54794;48.348;7.878;2024-01-30T00:31:46;100466.00;;;4.80
68012;BMP180;54794;48.348;7.878;2024-01-30T00:34:13;100472.00;;;4.70
68012;BMP180;54794;48.348;7.878;2024-01-30T00:36:40;100462.00;;;4.80
68012;BMP180;54794;48.348;7.878;2024-01-30T00:39:07;100456.00;;;5.00
68012;BMP180;54794;48.348;7.878;2024-01-30T00:41:35;100460.00;;;5.10
68012;BMP180;54794;48.348;7.878;2024-01-30T00:44:02;100463.00;;;4.70
68012;BMP180;54794;48.348;7.878;2024-01-30T00:46:29;100459.00;;;4.90
68012;BMP180;54794;48.348;7.878;2024-01-30T00:48:56;100454.00;;;4.90
68012;BMP180;54794;48.348;7.878;2024-01-30T00:51:24;100460.00;;;4.80
68012;BMP180;54794;48.348;7.878;2024-01-30T00:53:51;100452.00;;;4.80
68012;BMP180;54794;48.348;7.878;2024-01-30T00:56:19;100449.00;;;4.60
68012;BMP180;54794;48.348;7.878;2024-01-30T00:58:46;100445.00;;;4.60
68012;BMP180;54794;48.348;7.878;2024-01-30T01:01:13;100452.00;;;4.60
68012;BMP180;54794;48.348;7.878;2024-01-30T01:03:41;100452.00;;;4.40
68012;BMP180;54794;48.348;7.878;2024-01-30T01:06:10;100443.00;;;4.50
68012;BMP180;54794;48.348;7.878;2024-01-30T01:08:37;100443.00;;;4.20
68012;BMP180;54794;48.348;7.878;2024-01-30T01:11:04;100447.00;;;4.30
68012;BMP180;54794;48.348;7.878;2024-01-30T01:13:31;100448.00;;;4.40
68012;BMP180;54794;48.348;7.878;2024-01-30T01:15:58;100450.00;;;4.50
68012;BMP180;54794;48.348;7.878;2024-01-30T01:18:25;100443.00;;;4.30
68012;BMP180;54794;48.348;7.878;2024-01-30T01:20:52;100453.00;;;4.40
68012;BMP180;54794;48.348;7.878;2024-01-30T01:23:19;100441.00;;;4.50
68012;BMP180;54794;48.348;7.878;2024-01-30T01:25:46;100446.00;;;4.50
68012;BMP180;54794;48.348;7.878;2024-01-30T01:28:13;100443.00;;;4.50
68012;BMP180;54794;48.348;7.878;2024-01-30T01:30:40;100445.00;;;4.60
68012;BMP180;54794;48.348;7.878;2024-01-30T01:33:07;100442.00;;;4.50
68012;BMP180;54794;48.348;7.878;2024-01-30T01:35:34;100444.00;;;4.50
68012;BMP180;54794;48.348;7.878;2024-01-30T01:38:00;100448.00;;;4.30
68012;BMP180;54794;48.348;7.878;2024-01-30T01:40:28;100449.00;;;4.10
68012;BMP180;54794;48.348;7.878;2024-01-30T01:42:56;100450.00;;;4.20
68012;BMP180;54794;48.348;7.878;2024-01-30T01:45:23;100441.00;;;4.20
68012;BMP180;54794;48.348;7.878;2024-01-30T01:47:51;100447.00;;;4.30
68012;BMP180;54794;48.348;7.878;2024-01-30T01:50:20;100441.00;;;4.50
68012;BMP180;54794;48.348;7.878;2024-01-30T01:52:48;100447.00;;;4.30
68012;BMP180;54794;48.348;7.878;2024-01-30T01:55:16;100433.00;;;4.30
68012;BMP180;54794;48.348;7.878;2024-01-30T01:57:48;100440.00;;;4.30
68012;BMP180;54794;48.348;7.878;2024-01-30T02:00:15;100436.00;;;4.40
68012;BMP180;54794;48.348;7.878;2024-01-30T02:02:45;100437.00;;;4.10
68012;BMP180;54794;48.348;7.878;2024-01-30T02:05:12;100437.00;;;4.30
68012;BMP180;54794;48.348;7.878;2024-01-30T02:07:39;100445.00;;;4.40
68012;BMP180;54794;48.348;7.878;2024-01-30T02:10:08;100441.00;;;4.50
68012;BMP180;54794;48.348;7.878;2024-01-30T02:12:36;100437.00;;;4.40
68012;BMP180;54794;48.348;7.878;2024-01-30T02:15:05;100445.00;;;4.20
68012;BMP180;54794;48.348;7.878;2024-01-30T02:17:32;100444.00;;;4.10
68012;BMP180;54794;48.348;7.878;2024-01-30T02:19:59;100444.00;;;4.10
68012;BMP180;54794;48.348;7.878;2024-01-30T02:22:27;100445.00;;;4.40
68012;BMP180;54794;48.348;7.878;2024-01-30T02:24:54;100443.00;;;4.60
68012;BMP180;54794;48.348;7.878;2024-01-30T02:27:21;100446.00;;;4.60
68012;BMP180;54794;48.348;7.878;2024-01-30T02:29:48;100439.00;;;4.50
68012;BMP180;54794;48.348;7.878;2024-01-30T02:32:15;100436.00;;;4.50
68012;BMP180;54794;48.348;7.878;2024-01-30T02:34:42;100436.00;;;4.60
68012;BMP180;54794;48.348;7.878;2024-01-30T02:37:10;100435.00;;;4.60
68012;BMP180;54794;48.348;7.878;2024-01-30T02:39:37;100452.00;;;4.50
68012;BMP180;54794;48.348;7.878;2024-01-30T02:42:04;100452.00;;;4.70
68012;BMP180;54794;48.348;7.878;2024-01-30T02:44:31;100439.00;;;4.50
68012;BMP180;54794;48.348;7.878;2024-01-30T02:46:58;100449.00;;;4.60
68012;BMP180;54794;48.348;7.878;2024-01-30T02:49:25;100450.00;;;4.80
68012;BMP180;54794;48.348;7.878;2024-01-30T02:51:54;100446.00;;;4.90
68012;BMP180;54794;48.348;7.878;2024-01-30T02:54:21;100451.00;;;4.80
68012;BMP180;54794;48.348;7.878;2024-01-30T02:56:48;100444.00;;;4.50
68012;BMP180;54794;48.348;7.878;2024-01-30T02:59:15;100449.00;;;4.60
68012;BMP180;54794;48.348;7.878;2024-01-30T03:01:43;100456.00;;;4.70
68012;BMP180;54794;48.348;7.878;2024-01-30T03:04:11;100464.00;;;4.60
68012;BMP180;54794;48.348;7.878;2024-01-30T03:06:39;100445.00;;;4.50
68012;BMP180;54794;48.348;7.878;2024-01-30T03:09:11;100458.00;;;4.40
68012;BMP180;54794;48.348;7.878;2024-01-30T03:11:38;100466.00;;;4.20
68012;BMP180;54794;48.348;7.878;2024-01-30T03:14:05;100456.00;;;4.30
68012;BMP180;54794;48.348;7.878;2024-01-30T03:16:31;100455.00;;;4.10
68012;BMP180;54794;48.348;7.878;2024-01-30T03:18:58;100463.00;;;4.10
68012;BMP180;54794;48.348;7.878;2024-01-30T03:21:28;100460.00;;;4.20
68012;BMP180;54794;48.348;7.878;2024-01-30T03:23:55;100460.00;;;4.50
68012;BMP180;54794;48.348;7.878;2024-01-30T03:26:22;100464.00;;;4.30
68012;BMP180;54794;48.348;7.878;2024-01-30T03:28:49;100462.00;;;4.60
68012;BMP180;54794;48.348;7.878;2024-01-30T03:31:16;100454.00;;;4.50
68012;BMP180;54794;48.348;7.878;2024-01-30T03:33:43;100468.00;;;4.40
68012;BMP180;54794;48.348;7.878;2024-01-30T03:36:11;100466.00;;;4.50
68012;BMP180;54794;48.348;7.878;2024-01-30T03:38:40;100466.00;;;4.50
68012;BMP180;54794;48.348;7.878;2024-01-30T03:41:10;100471.00;;;4.60
68012;BMP180;54794;48.348;7.878;2024-01-30T03:43:37;100465.00;;;4.60
68012;BMP180;54794;48.348;7.878;2024-01-30T03:46:04;100456.00;;;4.80
68012;BMP180;54794;48.348;7.878;2024-01-30T03:48:31;100471.00;;;4.50
68012;BMP180;54794;48.348;7.878;2024-01-30T03:50:58;100476.00;;;4.30
68012;BMP180;54794;48.348;7.878;2024-01-30T03:53:25;100468.00;;;4.30
68012;BMP180;54794;48.348;7.878;2024-01-30T03:55:52;100475.00;;;4.30
68012;BMP180;54794;48.348;7.878;2024-01-30T03:58:19;100476.00;;;4.10
68012;BMP180;54794;48.348;7.878;2024-01-30T04:00:46;100470.00;;;4.10
68012;BMP180;54794;48.348;7.878;2024-01-30T04:03:14;100474.00;;;4.20
68012;BMP180;54794;48.348;7.878;2024-01-30T04:05:45;100472.00;;;4.10
68012;BMP180;54794;48.348;7.878;2024-01-30T04:08:12;100470.00;;;4.00
68012;BMP180;54794;48.348;7.878;2024-01-30T04:10:39;100478.00;;;3.90
68012;BMP180;54794;48.348;7.878;2024-01-30T04:13:06;100470.00;;;4.00
68012;BMP180;54794;48.348;7.878;2024-01-30T04:15:38;100472.00;;;3.90
68012;BMP180;54794;48.348;7.878;2024-01-30T04:18:05;100478.00;;;3.90
68012;BMP180;54794;48.348;7.878;2024-01-30T04:20:32;100472.00;;;3.90
68012;BMP180;54794;48.348;7.878;2024-01-30T04:22:59;100466.00;;;3.90
68012;BMP180;54794;48.348;7.878;2024-01-30T04:25:26;100464.00;;;4.00
68012;BMP180;54794;48.348;7.878;2024-01-30T04:27:53;100470.00;;;4.20
68012;BMP180;54794;48.348;7.878;2024-01-30T04:30:20;100467.00;;;4.10
68012;BMP180;54794;48.348;7.878;2024-01-30T04:32:47;100467.00;;;4.00
68012;BMP180;54794;48.348;7.878;2024-01-30T04:35:14;100458.00;;;4.00
68012;BMP180;54794;48.348;7.878;2024-01-30T04:37:41;100459.00;;;3.80
68012;BMP180;54794;48.348;7.878;2024-01-30T04:40:10;100469.00;;;4.00
68012;BMP180;54794;48.348;7.878;2024-01-30T04:42:37;100472.00;;;3.90
68012;BMP180;54794;48.348;7.878;2024-01-30T04:45:05;100479.00;;;3.80
68012;BMP180;54794;48.348;7.878;2024-01-30T04:47:33;100468.00;;;3.90
68012;BMP180;54794;48.348;7.878;2024-01-30T04:50:01;100464.00;;;4.00
68012;BMP180;54794;48.348;7.878;2024-01-30T04:52:28;100459.00;;;4.20
68012;BMP180;54794;48.348;7.878;2024-01-30T04:54:55;100463.00;;;4.20
68012;BMP180;54794;48.348;7.878;2024-01-30T04:57:21;100469.00;;;4.20
68012;BMP180;54794;48.348;7.878;2024-01-30T04:59:48;100469.00;;;4.10
68012;BMP180;54794;48.348;7.878;2024-01-30T05:02:15;100469.00;;;4.00
68012;BMP180;54794;48.348;7.878;2024-01-30T05:04:42;100475.00;;;3.60
68012;BMP180;54794;48.348;7.878;2024-01-30T05:07:09;100467.00;;;3.60
68012;BMP180;54794;48.348;7.878;2024-01-30T05:09:36;100467.00;;;3.60
68012;BMP180;54794;48.348;7.878;2024-01-30T05:12:03;100462.00;;;3.70
68012;BMP180;54794;48.348;7.878;2024-01-30T05:14:30;100470.00;;;3.90
68012;BMP180;54794;48.348;7.878;2024-01-30T05:16:57;100469.00;;;3.60
68012;BMP180;54794;48.348;7.878;2024-01-30T05:19:24;100462.00;;;3.80
68012;BMP180;54794;48.348;7.878;2024-01-30T05:21:51;100464.00;;;3.90
68012;BMP180;54794;48.348;7.878;2024-01-30T05:24:18;100467.00;;;3.80
68012;BMP180;54794;48.348;7.878;2024-01-30T05:26:46;100468.00;;;3.80
68012;BMP180;54794;48.348;7.878;2024-01-30T05:29:15;100476.00;;;3.80
68012;BMP180;54794;48.348;7.878;2024-01-30T05:31:41;100469.00;;;3.80
68012;BMP180;54794;48.348;7.878;2024-01-30T05:34:08;100474.00;;;3.80
68012;BMP180;54794;48.348;7.878;2024-01-30T05:36:36;100469.00;;;4.00
68012;BMP180;54794;48.348;7.878;2024-01-30T05:39:02;100468.00;;;4.00
68012;BMP180;54794;48.348;7.878;2024-01-30T05:41:32;100470.00;;;4.00
68012;BMP180;54794;48.348;7.878;2024-01-30T05:43:59;100466.00;;;3.90
68012;BMP180;54794;48.348;7.878;2024-01-30T05:46:26;100462.00;;;4.00
68012;BMP180;54794;48.348;7.878;2024-01-30T05:48:53;100459.00;;;4.10
68012;BMP180;54794;48.348;7.878;2024-01-30T05:51:20;100466.00;;;4.10
68012;BMP180;54794;48.348;7.878;2024-01-30T05:53:47;100472.00;;;4.20
68012;BMP180;54794;48.348;7.878;2024-01-30T05:56:13;100469.00;;;4.10
68012;BMP180;54794;48.348;7.878;2024-01-30T05:58:40;100464.00;;;4.10
68012;BMP180;54794;48.348;7.878;2024-01-30T06:01:07;100469.00;;;4.10
68012;BMP180;54794;48.348;7.878;2024-01-30T06:03:35;100470.00;;;4.10
68012;BMP180;54794;48.348;7.878;2024-01-30T06:06:02;100469.00;;;4.30
68012;BMP180;54794;48.348;7.878;2024-01-30T06:08:29;100477.00;;;4.30
68012;BMP180;54794;48.348;7.878;2024-01-30T06:10:59;100476.00;;;4.30
68012;BMP180;54794;48.348;7.878;2024-01-30T06:13:30;100476.00;;;4.40
68012;BMP180;54794;48.348;7.878;2024-01-30T06:15:58;100468.00;;;4.50
68012;BMP180;54794;48.348;7.878;2024-01-30T06:18:25;100467.00;;;4.60
68012;BMP180;54794;48.348;7.878;2024-01-30T06:20:53;100459.00;;;4.70
68012;BMP180;54794;48.348;7.878;2024-01-30T06:23:20;100466.00;;;4.70
68012;BMP180;54794;48.348;7.878;2024-01-30T06:25:47;100463.00;;;4.80
68012;BMP180;54794;48.348;7.878;2024-01-30T06:28:14;100473.00;;;4.80
68012;BMP180;54794;48.348;7.878;2024-01-30T06:30:41;100467.00;;;4.90
68012;BMP180;54794;48.348;7.878;2024-01-30T06:33:07;100471.00;;;4.80
68012;BMP180;54794;48.348;7.878;2024-01-30T06:35:34;100461.00;;;4.90
68012;BMP180;54794;48.348;7.878;2024-01-30T06:38:02;100463.00;;;4.90
68012;BMP180;54794;48.348;7.878;2024-01-30T06:40:29;100477.00;;;4.90
68012;BMP180;54794;48.348;7.878;2024-01-30T06:42:56;100472.00;;;4.90
68012;BMP180;54794;48.348;7.878;2024-01-30T06:45:23;100464.00;;;5.00
68012;BMP180;54794;48.348;7.878;2024-01-30T06:47:53;100473.00;;;5.00
68012;BMP180;54794;48.348;7.878;2024-01-30T06:53:22;100472.00;;;5.00
68012;BMP180;54794;48.348;7.878;2024-01-30T06:55:48;100468.00;;;5.10
68012;BMP180;54794;48.348;7.878;2024-01-30T06:58:15;100465.00;;;5.10
68012;BMP180;54794;48.348;7.878;2024-01-30T07:00:45;100468.00;;;4.90
68012;BMP180;54794;48.348;7.878;2024-01-30T07:03:15;100473.00;;;4.90
68012;BMP180;54794;48.348;7.878;2024-01-30T07:09:20;100469.00;;;5.20
68012;BMP180;54794;48.348;7.878;2024-01-30T07:11:56;100479.00;;;5.00
68012;BMP180;54794;48.348;7.878;2024-01-30T07:14:25;100474.00;;;5.20
68012;BMP180;54794;48.348;7.878;2024-01-30T07:16:55;100476.00;;;5.10
68012;BMP180;54794;48.348;7.878;2024-01-30T07:19:25;100481.00;;;5.10
68012;BMP180;54794;48.348;7.878;2024-01-30T07:21:52;100474.00;;;5.10
68012;BMP180;54794;48.348;7.878;2024-01-30T07:24:19;100478.00;;;5.10
68012;BMP180;54794;48.348;7.878;2024-01-30T07:26:46;100477.00;;;5.20
68012;BMP180;54794;48.348;7.878;2024-01-30T07:29:13;100475.00;;;5.30
68012;BMP180;54794;48.348;7.878;2024-01-30T07:31:39;100466.00;;;5.30
68012;BMP180;54794;48.348;7.878;2024-01-30T07:34:07;100468.00;;;5.30
68012;BMP180;54794;48.348;7.878;2024-01-30T07:36:34;100476.00;;;5.50
68012;BMP180;54794;48.348;7.878;2024-01-30T07:39:00;100471.00;;;5.40
68012;BMP180;54794;48.348;7.878;2024-01-30T07:41:27;100476.00;;;5.50
68012;BMP180;54794;48.348;7.878;2024-01-30T07:43:54;100478.00;;;5.60
68012;BMP180;54794;48.348;7.878;2024-01-30T07:46:21;100488.00;;;5.70
68012;BMP180;54794;48.348;7.878;2024-01-30T07:48:48;100489.00;;;5.70
68012;BMP180;54794;48.348;7.878;2024-01-30T07:51:17;100496.00;;;5.80
68012;BMP180;54794;48.348;7.878;2024-01-30T07:53:44;100492.00;;;5.90
68012;BMP180;54794;48.348;7.878;2024-01-30T07:56:11;100495.00;;;6.00
68012;BMP180;54794;48.348;7.878;2024-01-30T07:58:38;100496.00;;;6.00
68012;BMP180;54794;48.348;7.878;2024-01-30T08:01:05;100502.00;;;6.10
68012;BMP180;54794;48.348;7.878;2024-01-30T08:03:32;100492.00;;;6.20
68012;BMP180;54794;48.348;7.878;2024-01-30T08:05:59;100483.00;;;6.20
68012;BMP180;54794;48.348;7.878;2024-01-30T08:08:25;100491.00;;;6.40
68012;BMP180;54794;48.348;7.878;2024-01-30T08:10:58;100480.00;;;6.50
68012;BMP180;54794;48.348;7.878;2024-01-30T08:13:25;100484.00;;;6.60
68012;BMP180;54794;48.348;7.878;2024-01-30T08:15:52;100488.00;;;6.70
68012;BMP180;54794;48.348;7.878;2024-01-30T08:18:19;100497.00;;;6.80
68012;BMP180;54794;48.348;7.878;2024-01-30T08:20:45;100475.00;;;6.90
68012;BMP180;54794;48.348;7.878;2024-01-30T08:23:13;100484.00;;;7.00
68012;BMP180;54794;48.348;7.878;2024-01-30T08:25:40;100476.00;;;7.10
68012;BMP180;54794;48.348;7.878;2024-01-30T08:28:09;100481.00;;;7.10
68012;BMP180;54794;48.348;7.878;2024-01-30T08:30:38;100482.00;;;7.30
68012;BMP180;54794;48.348;7.878;2024-01-30T08:33:06;100476.00;;;7.40
68012;BMP180;54794;48.348;7.878;2024-01-30T08:35:35;100469.00;;;7.50
68012;BMP180;54794;48.348;7.878;2024-01-30T08:38:02;100487.00;;;7.50
68012;BMP180;54794;48.348;7.878;2024-01-30T08:40:32;100478.00;;;7.60
68012;BMP180;54794;48.348;7.878;2024-01-30T08:42:59;100477.00;;;7.60
68012;BMP180;54794;48.348;7.878;2024-01-30T08:45:26;100485.00;;;7.60
68012;BMP180;54794;48.348;7.878;2024-01-30T08:47:56;100485.00;;;7.70
68012;BMP180;54794;48.348;7.878;2024-01-30T08:50:25;100481.00;;;7.80
68012;BMP180;54794;48.348;7.878;2024-01-30T08:52:52;100482.00;;;7.90
68012;BMP180;54794;48.348;7.878;2024-01-30T08:55:20;100484.00;;;8.00
68012;BMP180;54794;48.348;7.878;2024-01-30T08:57:47;100482.00;;;8.10
68012;BMP180;54794;48.348;7.878;2024-01-30T09:00:17;100478.00;;;8.20
68012;BMP180;54794;48.348;7.878;2024-01-30T09:02:48;100477.00;;;8.30
68012;BMP180;54794;48.348;7.878;2024-01-30T09:05:19;100471.00;;;8.30
68012;BMP180;54794;48.348;7.878;2024-01-30T09:07:46;100473.00;;;8.50
68012;BMP180;54794;48.348;7.878;2024-01-30T09:10:13;100481.00;;;8.50
68012;BMP180;54794;48.348;7.878;2024-01-30T09:12:42;100474.00;;;8.60
68012;BMP180;54794;48.348;7.878;2024-01-30T09:15:09;100476.00;;;8.80
68012;BMP180;54794;48.348;7.878;2024-01-30T09:17:36;100491.00;;;8.80
68012;BMP180;54794;48.348;7.878;2024-01-30T09:20:05;100491.00;;;9.00
68012;BMP180;54794;48.348;7.878;2024-01-30T09:22:32;100496.00;;;9.20
68012;BMP180;54794;48.348;7.878;2024-01-30T09:25:02;100484.00;;;9.30
68012;BMP180;54794;48.348;7.878;2024-01-30T09:27:32;100485.00;;;9.40
68012;BMP180;54794;48.348;7.878;2024-01-30T09:30:01;100487.00;;;9.50
68012;BMP180;54794;48.348;7.878;2024-01-30T09:32:31;100485.00;;;9.60
68012;BMP180;54794;48.348;7.878;2024-01-30T09:35:00;100497.00;;;9.70
68012;BMP180;54794;48.348;7.878;2024-01-30T09:37:27;100497.00;;;9.80
68012;BMP180;54794;48.348;7.878;2024-01-30T09:39:54;100500.00;;;9.90
68012;BMP180;54794;48.348;7.878;2024-01-30T09:42:42;100495.00;;;9.90
68012;BMP180;54794;48.348;7.878;2024-01-30T09:45:13;100497.00;;;10.00
68012;BMP180;54794;48.348;7.878;2024-01-30T09:47:43;100493.00;;;10.00
68012;BMP180;54794;48.348;7.878;2024-01-30T09:50:15;100493.00;;;10.10
68012;BMP180;54794;48.348;7.878;2024-01-30T09:52:47;100490.00;;;10.20
68012;BMP180;54794;48.348;7.878;2024-01-30T09:55:15;100489.00;;;10.30
68012;BMP180;54794;48.348;7.878;2024-01-30T09:57:46;100490.00;;;10.40
68012;BMP180;54794;48.348;7.878;2024-01-30T10:00:13;100495.00;;;10.40
68012;BMP180;54794;48.348;7.878;2024-01-30T10:02:42;100489.00;;;10.50
68012;BMP180;54794;48.348;7.878;2024-01-30T10:05:11;100484.00;;;10.50
68012;BMP180;54794;48.348;7.878;2024-01-30T10:07:53;100476.00;;;10.50
68012;BMP180;54794;48.348;7.878;2024-01-30T10:10:24;100491.00;;;10.60
68012;BMP180;54794;48.348;7.878;2024-01-30T10:12:51;100481.00;;;10.60
68012;BMP180;54794;48.348;7.878;2024-01-30T10:15:24;100486.00;;;10.60
68012;BMP180;54794;48.348;7.878;2024-01-30T10:17:52;100491.00;;;10.70
68012;BMP180;54794;48.348;7.878;2024-01-30T10:20:27;100489.00;;;10.70
68012;BMP180;54794;48.348;7.878;2024-01-30T10:23:08;100488.00;;;10.80
68012;BMP180;54794;48.348;7.878;2024-01-30T10:25:44;100487.00;;;10.90
68012;BMP180;54794;48.348;7.878;2024-01-30T10:28:16;100491.00;;;10.90
68012;BMP180;54794;48.348;7.878;2024-01-30T10:31:25;100489.00;;;10.90
68012;BMP180;54794;48.348;7.878;2024-01-30T10:34:06;100481.00;;;11.00
68012;BMP180;54794;48.348;7.878;2024-01-30T10:36:50;100483.00;;;11.00
68012;BMP180;54794;48.348;7.878;2024-01-30T10:39:23;100491.00;;;11.00
68012;BMP180;54794;48.348;7.878;2024-01-30T10:42:49;100490.00;;;11.10
68012;BMP180;54794;48.348;7.878;2024-01-30T10:49:42;100493.00;;;11.30
68012;BMP180;54794;48.348;7.878;2024-01-30T10:52:32;100488.00;;;11.50
68012;BMP180;54794;48.348;7.878;2024-01-30T10:55:28;100486.00;;;11.70
68012;BMP180;54794;48.348;7.878;2024-01-30T10:58:07;100484.00;;;11.80
68012;BMP180;54794;48.348;7.878;2024-01-30T11:00:51;100490.00;;;11.80
68012;BMP180;54794;48.348;7.878;2024-01-30T11:06:45;100469.00;;;11.90
68012;BMP180;54794;48.348;7.878;2024-01-30T11:12:38;100472.00;;;11.80
68012;BMP180;54794;48.348;7.878;2024-01-30T11:15:23;100476.00;;;11.90
68012;BMP180;54794;48.348;7.878;2024-01-30T11:17:52;100469.00;;;12.10
68012;BMP180;54794;48.348;7.878;2024-01-30T11:20:33;100470.00;;;12.00
68012;BMP180;54794;48.348;7.878;2024-01-30T11:23:16;100464.00;;;12.20
68012;BMP180;54794;48.348;7.878;2024-01-30T11:28:52;100469.00;;;12.20
68012;BMP180;54794;48.348;7.878;2024-01-30T11:31:33;100476.00;;;12.20
68012;BMP180;54794;48.348;7.878;2024-01-30T11:44:28;100478.00;;;12.40
68012;BMP180;54794;48.348;7.878;2024-01-30T11:47:07;100464.00;;;12.40
68012;BMP180;54794;48.348;7.878;2024-01-30T11:59:26;100469.00;;;12.50
68012;BMP180;54794;48.348;7.878;2024-01-30T12:03:24;100477.00;;;12.50
68012;BMP180;54794;48.348;7.878;2024-01-30T12:18:48;100467.00;;;12.90
68012;BMP180;54794;48.348;7.878;2024-01-30T12:21:21;100467.00;;;13.10
68012;BMP180;54794;48.348;7.878;2024-01-30T12:23:52;100461.00;;;13.10
68012;BMP180;54794;48.348;7.878;2024-01-30T12:26:35;100449.00;;;13.10
68012;BMP180;54794;48.348;7.878;2024-01-30T12:29:46;100448.00;;;13.00
68012;BMP180;54794;48.348;7.878;2024-01-30T12:32:19;100446.00;;;12.90
68012;BMP180;54794;48.348;7.878;2024-01-30T12:35:23;100447.00;;;12.80
68012;BMP180;54794;48.348;7.878;2024-01-30T12:38:26;100450.00;;;12.90
68012;BMP180;54794;48.348;7.878;2024-01-30T12:41:24;100451.00;;;13.10
68012;BMP180;54794;48.348;7.878;2024-01-30T12:44:01;100434.00;;;13.10
68012;BMP180;54794;48.348;7.878;2024-01-30T12:46:31;100450.00;;;13.20
68012;BMP180;54794;48.348;7.878;2024-01-30T12:49:42;100442.00;;;13.10
68012;BMP180;54794;48.348;7.878;2024-01-30T12:52:45;100451.00;;;13.10
68012;BMP180;54794;48.348;7.878;2024-01-30T12:55:29;100447.00;;;13.10
68012;BMP180;54794;48.348;7.878;2024-01-30T13:02:30;100461.00;;;13.10
68012;BMP180;54794;48.348;7.878;2024-01-30T13:06:04;100448.00;;;13.30
68012;BMP180;54794;48.348;7.878;2024-01-30T13:09:06;100463.00;;;13.30
68012;BMP180;54794;48.348;7.878;2024-01-30T13:12:29;100447.00;;;13.20
68012;BMP180;54794;48.348;7.878;2024-01-30T13:15:05;100447.00;;;13.30
68012;BMP180;54794;48.348;7.878;2024-01-30T13:18:05;100462.00;;;13.40
68012;BMP180;54794;48.348;7.878;2024-01-30T13:21:15;100453.00;;;13.30
68012;BMP180;54794;48.348;7.878;2024-01-30T13:23:51;100448.00;;;13.40
68012;BMP180;54794;48.348;7.878;2024-01-30T13:27:08;100453.00;;;13.40
68012;BMP180;54794;48.348;7.878;2024-01-30T13:30:37;100455.00;;;13.30
68012;BMP180;54794;48.348;7.878;2024-01-30T13:33:25;100457.00;;;13.20
68012;BMP180;54794;48.348;7.878;2024-01-30T13:36:41;100475.00;;;13.10
68012;BMP180;54794;48.348;7.878;2024-01-30T13:40:18;100475.00;;;13.10
68012;BMP180;54794;48.348;7.878;2024-01-30T13:43:37;100472.00;;;13.00
68012;BMP180;54794;48.348;7.878;2024-01-30T13:46:42;100474.00;;;12.90
68012;BMP180;54794;48.348;7.878;2024-01-30T13:49:59;100476.00;;;12.80
68012;BMP180;54794;48.348;7.878;2024-01-30T13:53:20;100482.00;;;12.90
68012;BMP180;54794;48.348;7.878;2024-01-30T13:56:16;100480.00;;;13.00
68012;BMP180;54794;48.348;7.878;2024-01-30T14:00:06;100476.00;;;13.00
68012;BMP180;54794;48.348;7.878;2024-01-30T14:03:10;100461.00;;;13.00
68012;BMP180;54794;48.348;7.878;2024-01-30T14:05:56;100465.00;;;13.00
68012;BMP180;54794;48.348;7.878;2024-01-30T14:08:40;100468.00;;;13.00
68012;BMP180;54794;48.348;7.878;2024-01-30T14:15:51;100465.00;;;12.90
68012;BMP180;54794;48.348;7.878;2024-01-30T14:18:38;100471.00;;;12.90
68012;BMP180;54794;48.348;7.878;2024-01-30T14:21:25;100464.00;;;12.90
68012;BMP180;54794;48.348;7.878;2024-01-30T14:24:15;100469.00;;;12.90
68012;BMP180;54794;48.348;7.878;2024-01-30T14:26:45;100466.00;;;12.70
68012;BMP180;54794;48.348;7.878;2024-01-30T14:29:12;100470.00;;;12.90
68012;BMP180;54794;48.348;7.878;2024-01-30T14:31:53;100473.00;;;12.80
68012;BMP180;54794;48.348;7.878;2024-01-30T14:34:21;100470.00;;;12.80
68012;BMP180;54794;48.348;7.878;2024-01-30T14:36:49;100476.00;;;12.70
68012;BMP180;54794;48.348;7.878;2024-01-30T14:39:16;100479.00;;;12.70
68012;BMP180;54794;48.348;7.878;2024-01-30T14:41:43;100475.00;;;12.70
68012;BMP180;54794;48.348;7.878;2024-01-30T14:44:13;100477.00;;;12.80
68012;BMP180;54794;48.348;7.878;2024-01-30T14:46:41;100474.00;;;12.70
68012;BMP180;54794;48.348;7.878;2024-01-30T14:49:12;100471.00;;;12.80
68012;BMP180;54794;48.348;7.878;2024-01-30T14:51:42;100462.00;;;12.80
68012;BMP180;54794;48.348;7.878;2024-01-30T14:54:09;100456.00;;;12.80
68012;BMP180;54794;48.348;7.878;2024-01-30T14:56:43;100461.00;;;12.70
68012;BMP180;54794;48.348;7.878;2024-01-30T14:59:10;100472.00;;;12.60
68012;BMP180;54794;48.348;7.878;2024-01-30T15:01:40;100470.00;;;12.50
68012;BMP180;54794;48.348;7.878;2024-01-30T15:04:10;100476.00;;;12.40
68012;BMP180;54794;48.348;7.878;2024-01-30T15:06:37;100479.00;;;12.30
68012;BMP180;54794;48.348;7.878;2024-01-30T15:09:04;100486.00;;;12.30
68012;BMP180;54794;48.348;7.878;2024-01-30T15:11:31;100485.00;;;12.40
68012;BMP180;54794;48.348;7.878;2024-01-30T15:14:02;100483.00;;;12.50
68012;BMP180;54794;48.348;7.878;2024-01-30T15:16:30;100482.00;;;12.50
68012;BMP180;54794;48.348;7.878;2024-01-30T15:18:57;100473.00;;;12.40
68012;BMP180;54794;48.348;7.878;2024-01-30T15:21:25;100474.00;;;12.50
68012;BMP180;54794;48.348;7.878;2024-01-30T15:23:53;100482.00;;;12.50
68012;BMP180;54794;48.348;7.878;2024-01-30T15:26:20;100495.00;;;12.30
68012;BMP180;54794;48.348;7.878;2024-01-30T15:28:46;100498.00;;;12.30
68012;BMP180;54794;48.348;7.878;2024-01-30T15:31:13;100503.00;;;12.20
68012;BMP180;54794;48.348;7.878;2024-01-30T15:33:40;100504.00;;;12.20
68012;BMP180;54794;48.348;7.878;2024-01-30T15:36:10;100505.00;;;12.20
68012;BMP180;54794;48.348;7.878;2024-01-30T15:42:20;100503.00;;;12.10